sensor_id;sensor_type;location;lat;lon;timestamp;pressure;altitude;pressure_sealevel;temperature;humidity
19624;BME280;9959;49.798;9.928;2023-03-22T00:02:25;99448.59;;;6.03;100.00
19624;BME280;9959;49.798;9.928;2023-03-22T00:04:52;99445.94;;;6.03;100.00
19624;BME280;9959;49.798;9.928;2023-03-22T00:07:19;99445.09;;;6.02;100.00
19624;BME280;9959;49.798;9.928;2023-03-22T00:09:46;99451.56;;;6.08;100.00
19624;BME280;9959;49.798;9.928;2023-03-22T00:12:13;99452.41;;;5.94;100.00
19624;BME280;9959;49.798;9.928;2023-03-22T00:14:39;99452.22;;;5.81;100.00
19624;BME280;9959;49.798;9.928;2023-03-22T00:17:06;99457.91;;;5.77;100.00
19624;BME280;9959;49.798;9.928;2023-03-22T00:19:33;99450.38;;;5.66;100.00
19624;BME280;9959;49.798;9.928;2023-03-22T00:22:00;99441.00;;;5.70;100.00
19624;BME280;9959;49.798;9.928;2023-03-22T00:24:29;99443.38;;;5.65;100.00
19624;BME280;9959;49.798;9.928;2023-03-22T00:26:55;99447.81;;;5.58;100.00
19624;BME280;9959;49.798;9.928;2023-03-22T00:29:24;99446.63;;;5.46;100.00
19624;BME280;9959;49.798;9.928;2023-03-22T00:31:50;99443.75;;;5.33;100.00
19624;BME280;9959;49.798;9.928;2023-03-22T00:34:19;99448.72;;;5.51;100.00
19624;BME280;9959;49.798;9.928;2023-03-22T00:36:46;99450.66;;;5.57;100.00
19624;BME280;9959;49.798;9.928;2023-03-22T00:39:14;99443.75;;;5.33;100.00
19624;BME280;9959;49.798;9.928;2023-03-22T00:41:41;99445.41;;;5.34;100.00
19624;BME280;9959;49.798;9.928;2023-03-22T00:44:07;99445.66;;;5.24;100.00
19624;BME280;9959;49.798;9.928;2023-03-22T00:46:34;99438.66;;;5.23;100.00
19624;BME280;9959;49.798;9.928;2023-03-22T00:49:03;99428.28;;;5.43;100.00
19624;BME280;9959;49.798;9.928;2023-03-22T00:51:29;99434.00;;;5.40;100.00
19624;BME280;9959;49.798;9.928;2023-03-22T00:53:56;99424.41;;;5.31;100.00
19624;BME280;9959;49.798;9.928;2023-03-22T00:56:23;99422.66;;;5.38;100.00
19624;BME280;9959;49.798;9.928;2023-03-22T00:58:51;99420.72;;;5.32;100.00
19624;BME280;9959;49.798;9.928;2023-03-22T01:01:17;99417.31;;;5.38;100.00
19624;BME280;9959;49.798;9.928;2023-03-22T01:03:44;99420.44;;;5.27;100.00
19624;BME280;9959;49.798;9.928;2023-03-22T01:06:15;99424.78;;;5.42;100.00
19624;BME280;9959;49.798;9.928;2023-03-22T01:08:42;99408.56;;;5.44;100.00
19624;BME280;9959;49.798;9.928;2023-03-22T01:11:08;99407.91;;;5.57;100.00
19624;BME280;9959;49.798;9.928;2023-03-22T01:13:36;99410.22;;;5.60;100.00
19624;BME280;9959;49.798;9.928;2023-03-22T01:16:04;99408.72;;;5.57;100.00
19624;BME280;9959;49.798;9.928;2023-03-22T01:18:32;99409.19;;;5.61;100.00
19624;BME280;9959;49.798;9.928;2023-03-22T01:20:59;99406.63;;;5.67;100.00
19624;BME280;9959;49.798;9.928;2023-03-22T01:23:26;99401.81;;;5.63;100.00
19624;BME280;9959;49.798;9.928;2023-03-22T01:25:53;99406.97;;;5.64;100.00
19624;BME280;9959;49.798;9.928;2023-03-22T01:28:20;99394.44;;;5.65;100.00
19624;BME280;9959;49.798;9.928;2023-03-22T01:30:47;99390.03;;;5.72;100.00
19624;BME280;9959;49.798;9.928;2023-03-22T01:33:14;99388.25;;;5.79;100.00
19624;BME280;9959;49.798;9.928;2023-03-22T01:35:41;99385.09;;;5.75;100.00
19624;BME280;9959;49.798;9.928;2023-03-22T01:38:08;99379.03;;;5.82;100.00
19624;BME280;9959;49.798;9.928;2023-03-22T01:40:35;99373.31;;;5.85;100.00
19624;BME280;9959;49.798;9.928;2023-03-22T01:43:02;99373.31;;;5.85;100.00
19624;BME280;9959;49.798;9.928;2023-03-22T01:50:32;99367.69;;;5.79;100.00
19624;BME280;9959;49.798;9.928;2023-03-22T01:52:59;99371.56;;;5.77;100.00
19624;BME280;9959;49.798;9.928;2023-03-22T01:55:30;99367.97;;;5.85;100.00
19624;BME280;9959;49.798;9.928;2023-03-22T01:58:00;99369.16;;;5.82;100.00
19624;BME280;9959;49.798;9.928;2023-03-22T02:00:27;99362.97;;;5.82;100.00
19624;BME280;9959;49.798;9.928;2023-03-22T02:02:54;99358.91;;;5.86;100.00
19624;BME280;9959;49.798;9.928;2023-03-22T02:05:21;99360.00;;;6.06;100.00
19624;BME280;9959;49.798;9.928;2023-03-22T02:07:49;99358.09;;;6.00;100.00
19624;BME280;9959;49.798;9.928;2023-03-22T02:10:19;99351.31;;;6.04;100.00
19624;BME280;9959;49.798;9.928;2023-03-22T02:15:40;99356.56;;;6.12;100.00
19624;BME280;9959;49.798;9.928;2023-03-22T02:42:26;99345.47;;;6.15;100.00
19624;BME280;9959;49.798;9.928;2023-03-22T02:45:02;99339.69;;;6.11;100.00
19624;BME280;9959;49.798;9.928;2023-03-22T02:47:38;99333.88;;;6.29;100.00
19624;BME280;9959;49.798;9.928;2023-03-22T02:50:07;99333.50;;;6.11;100.00
19624;BME280;9959;49.798;9.928;2023-03-22T02:52:44;99329.69;;;6.20;100.00
19624;BME280;9959;49.798;9.928;2023-03-22T02:55:33;99329.00;;;6.11;100.00
19624;BME280;9959;49.798;9.928;2023-03-22T02:58:02;99327.59;;;6.16;100.00
19624;BME280;9959;49.798;9.928;2023-03-22T03:00:32;99329.25;;;6.17;100.00
19624;BME280;9959;49.798;9.928;2023-03-22T03:03:05;99330.53;;;6.21;100.00
19624;BME280;9959;49.798;9.928;2023-03-22T03:05:42;99333.47;;;6.26;100.00
19624;BME280;9959;49.798;9.928;2023-03-22T03:08:11;99333.38;;;6.19;100.00
19624;BME280;9959;49.798;9.928;2023-03-22T03:10:39;99333.78;;;6.16;100.00
19624;BME280;9959;49.798;9.928;2023-03-22T03:13:12;99330.84;;;6.11;100.00
19624;BME280;9959;49.798;9.928;2023-03-22T03:15:41;99332.00;;;6.23;100.00
19624;BME280;9959;49.798;9.928;2023-03-22T03:23:29;99332.25;;;6.28;100.00
19624;BME280;9959;49.798;9.928;2023-03-22T03:28:35;99336.44;;;6.37;100.00
19624;BME280;9959;49.798;9.928;2023-03-22T03:31:11;99335.84;;;6.42;100.00
19624;BME280;9959;49.798;9.928;2023-03-22T03:36:33;99337.03;;;6.61;100.00
19624;BME280;9959;49.798;9.928;2023-03-22T03:41:32;99340.34;;;6.63;100.00
19624;BME280;9959;49.798;9.928;2023-03-22T03:43:59;99333.34;;;6.62;100.00
19624;BME280;9959;49.798;9.928;2023-03-22T03:46:27;99339.56;;;6.69;100.00
19624;BME280;9959;49.798;9.928;2023-03-22T03:48:56;99341.16;;;6.63;100.00
19624;BME280;9959;49.798;9.928;2023-03-22T03:51:26;99341.03;;;6.71;100.00
19624;BME280;9959;49.798;9.928;2023-03-22T03:53:53;99354.09;;;6.81;100.00
19624;BME280;9959;49.798;9.928;2023-03-22T03:56:20;99344.94;;;6.69;100.00
19624;BME280;9959;49.798;9.928;2023-03-22T03:58:46;99351.31;;;6.68;100.00
19624;BME280;9959;49.798;9.928;2023-03-22T04:01:13;99346.97;;;6.67;100.00
19624;BME280;9959;49.798;9.928;2023-03-22T04:03:40;99343.41;;;6.60;100.00
19624;BME280;9959;49.798;9.928;2023-03-22T04:06:07;99347.09;;;6.59;100.00
19624;BME280;9959;49.798;9.928;2023-03-22T04:08:34;99347.75;;;6.61;100.00
19624;BME280;9959;49.798;9.928;2023-03-22T04:11:01;99341.22;;;6.70;100.00
19624;BME280;9959;49.798;9.928;2023-03-22T04:13:28;99343.59;;;6.79;100.00
19624;BME280;9959;49.798;9.928;2023-03-22T04:15:55;99335.09;;;6.76;100.00
19624;BME280;9959;49.798;9.928;2023-03-22T04:18:23;99339.56;;;6.69;100.00
19624;BME280;9959;49.798;9.928;2023-03-22T04:20:50;99332.69;;;6.88;100.00
19624;BME280;9959;49.798;9.928;2023-03-22T04:23:19;99336.00;;;6.90;100.00
19624;BME280;9959;49.798;9.928;2023-03-22T04:25:48;99341.16;;;6.91;100.00
19624;BME280;9959;49.798;9.928;2023-03-22T04:28:16;99334.94;;;6.84;100.00
19624;BME280;9959;49.798;9.928;2023-03-22T04:30:46;99334.03;;;6.98;100.00
19624;BME280;9959;49.798;9.928;2023-03-22T04:33:18;99334.41;;;6.95;100.00
19624;BME280;9959;49.798;9.928;2023-03-22T04:35:45;99325.78;;;7.00;100.00
19624;BME280;9959;49.798;9.928;2023-03-22T04:38:12;99322.44;;;6.91;100.00
19624;BME280;9959;49.798;9.928;2023-03-22T04:40:39;99319.59;;;6.99;100.00
19624;BME280;9959;49.798;9.928;2023-03-22T04:43:12;99318.78;;;6.99;100.00
19624;BME280;9959;49.798;9.928;2023-03-22T04:45:41;99314.25;;;6.99;100.00
19624;BME280;9959;49.798;9.928;2023-03-22T04:48:09;99309.69;;;6.93;100.00
19624;BME280;9959;49.798;9.928;2023-03-22T04:50:38;99300.63;;;6.94;100.00
19624;BME280;9959;49.798;9.928;2023-03-22T04:53:06;99302.91;;;6.97;100.00
19624;BME280;9959;49.798;9.928;2023-03-22T04:55:33;99295.91;;;6.96;100.00
19624;BME280;9959;49.798;9.928;2023-03-22T04:58:00;99290.28;;;6.91;100.00
19624;BME280;9959;49.798;9.928;2023-03-22T05:00:27;99286.56;;;6.86;100.00
19624;BME280;9959;49.798;9.928;2023-03-22T05:02:56;99266.34;;;6.76;100.00
19624;BME280;9959;49.798;9.928;2023-03-22T05:05:24;99277.75;;;6.64;100.00
19624;BME280;9959;49.798;9.928;2023-03-22T05:07:51;99277.31;;;6.54;100.00
19624;BME280;9959;49.798;9.928;2023-03-22T05:10:18;99265.97;;;6.58;100.00
19624;BME280;9959;49.798;9.928;2023-03-22T05:12:44;99271.13;;;6.60;100.00
19624;BME280;9959;49.798;9.928;2023-03-22T05:15:12;99267.81;;;6.51;100.00
19624;BME280;9959;49.798;9.928;2023-03-22T05:17:39;99261.22;;;6.26;100.00
19624;BME280;9959;49.798;9.928;2023-03-22T05:20:06;99263.66;;;6.21;100.00
19624;BME280;9959;49.798;9.928;2023-03-22T05:22:38;99276.56;;;6.38;100.00
19624;BME280;9959;49.798;9.928;2023-03-22T05:25:08;99282.16;;;6.43;100.00
19624;BME280;9959;49.798;9.928;2023-03-22T05:27:36;99284.09;;;6.28;100.00
19624;BME280;9959;49.798;9.928;2023-03-22T05:32:29;99286.88;;;6.41;100.00
19624;BME280;9959;49.798;9.928;2023-03-22T05:34:56;99281.25;;;6.36;100.00
19624;BME280;9959;49.798;9.928;2023-03-22T05:37:23;99278.47;;;6.44;100.00
19624;BME280;9959;49.798;9.928;2023-03-22T05:39:50;99286.56;;;6.58;100.00
19624;BME280;9959;49.798;9.928;2023-03-22T05:42:17;99290.03;;;6.52;100.00
19624;BME280;9959;49.798;9.928;2023-03-22T05:44:44;99287.19;;;6.53;100.00
19624;BME280;9959;49.798;9.928;2023-03-22T05:47:11;99295.78;;;6.49;100.00
19624;BME280;9959;49.798;9.928;2023-03-22T05:49:37;99300.56;;;6.53;100.00
19624;BME280;9959;49.798;9.928;2023-03-22T05:52:04;99309.50;;;6.67;100.00
19624;BME280;9959;49.798;9.928;2023-03-22T05:54:31;99297.56;;;6.69;100.00
19624;BME280;9959;49.798;9.928;2023-03-22T05:56:58;99306.72;;;6.82;100.00
19624;BME280;9959;49.798;9.928;2023-03-22T05:59:25;99306.84;;;7.01;100.00
19624;BME280;9959;49.798;9.928;2023-03-22T06:01:52;99310.59;;;7.13;100.00
19624;BME280;9959;49.798;9.928;2023-03-22T06:04:19;99305.06;;;7.15;100.00
19624;BME280;9959;49.798;9.928;2023-03-22T06:06:46;99307.34;;;7.18;100.00
19624;BME280;9959;49.798;9.928;2023-03-22T06:09:13;99307.78;;;7.22;100.00
19624;BME280;9959;49.798;9.928;2023-03-22T06:11:43;99310.28;;;7.30;100.00
19624;BME280;9959;49.798;9.928;2023-03-22T06:14:10;99307.84;;;7.41;100.00
19624;BME280;9959;49.798;9.928;2023-03-22T06:16:37;99308.53;;;7.50;100.00
19624;BME280;9959;49.798;9.928;2023-03-22T06:19:03;99307.72;;;7.56;100.00
19624;BME280;9959;49.798;9.928;2023-03-22T06:21:29;99301.34;;;7.57;100.00
19624;BME280;9959;49.798;9.928;2023-03-22T06:23:56;99310.25;;;7.64;100.00
19624;BME280;9959;49.798;9.928;2023-03-22T06:26:23;99306.09;;;7.68;100.00
19624;BME280;9959;49.798;9.928;2023-03-22T06:28:50;99311.28;;;7.76;100.00
19624;BME280;9959;49.798;9.928;2023-03-22T06:31:16;99302.28;;;7.91;100.00
19624;BME280;9959;49.798;9.928;2023-03-22T06:33:43;99309.88;;;7.94;100.00
19624;BME280;9959;49.798;9.928;2023-03-22T06:36:11;99308.88;;;8.01;100.00
19624;BME280;9959;49.798;9.928;2023-03-22T06:38:37;99300.63;;;8.03;100.00
19624;BME280;9959;49.798;9.928;2023-03-22T06:43:31;99308.94;;;8.34;98.33
19624;BME280;9959;49.798;9.928;2023-03-22T06:45:57;99311.44;;;8.42;98.71
19624;BME280;9959;49.798;9.928;2023-03-22T06:48:24;99325.28;;;8.46;98.97
19624;BME280;9959;49.798;9.928;2023-03-22T06:50:51;99313.91;;;8.64;96.98
19624;BME280;9959;49.798;9.928;2023-03-22T06:53:18;99316.78;;;8.56;96.69
19624;BME280;9959;49.798;9.928;2023-03-22T06:55:45;99314.53;;;8.59;96.99
19624;BME280;9959;49.798;9.928;2023-03-22T06:58:12;99312.22;;;8.82;95.00
19624;BME280;9959;49.798;9.928;2023-03-22T07:00:38;99316.19;;;8.73;95.64
19624;BME280;9959;49.798;9.928;2023-03-22T07:03:06;99317.84;;;8.74;95.51
19624;BME280;9959;49.798;9.928;2023-03-22T07:05:32;99313.25;;;8.95;96.91
19624;BME280;9959;49.798;9.928;2023-03-22T07:07:59;99316.31;;;9.11;94.59
19624;BME280;9959;49.798;9.928;2023-03-22T07:10:26;99313.81;;;9.23;93.63
19624;BME280;9959;49.798;9.928;2023-03-22T07:12:53;99324.69;;;9.48;90.59
19624;BME280;9959;49.798;9.928;2023-03-22T07:15:20;99319.63;;;9.71;88.39
19624;BME280;9959;49.798;9.928;2023-03-22T07:17:51;99312.78;;;9.75;87.95
19624;BME280;9959;49.798;9.928;2023-03-22T07:20:18;99311.41;;;9.98;85.43
19624;BME280;9959;49.798;9.928;2023-03-22T07:22:45;99315.75;;;9.99;85.50
19624;BME280;9959;49.798;9.928;2023-03-22T07:25:12;99309.19;;;10.26;84.28
19624;BME280;9959;49.798;9.928;2023-03-22T07:27:39;99311.72;;;10.46;82.62
19624;BME280;9959;49.798;9.928;2023-03-22T07:30:07;99300.47;;;10.56;81.38
19624;BME280;9959;49.798;9.928;2023-03-22T07:32:35;99297.47;;;10.89;78.17
19624;BME280;9959;49.798;9.928;2023-03-22T07:35:02;99293.53;;;11.09;77.02
19624;BME280;9959;49.798;9.928;2023-03-22T07:37:28;99290.94;;;11.21;74.85
19624;BME280;9959;49.798;9.928;2023-03-22T07:39:55;99297.72;;;11.42;73.81
19624;BME280;9959;49.798;9.928;2023-03-22T07:42:22;99302.44;;;11.65;71.31
19624;BME280;9959;49.798;9.928;2023-03-22T07:44:49;99301.16;;;11.67;72.21
19624;BME280;9959;49.798;9.928;2023-03-22T07:47:16;99302.41;;;11.83;71.22
19624;BME280;9959;49.798;9.928;2023-03-22T07:49:59;99302.09;;;11.91;70.67
19624;BME280;9959;49.798;9.928;2023-03-22T07:52:26;99300.47;;;11.90;70.89
19624;BME280;9959;49.798;9.928;2023-03-22T07:54:52;99299.78;;;12.06;69.84
19624;BME280;9959;49.798;9.928;2023-03-22T07:57:19;99301.03;;;12.22;69.43
19624;BME280;9959;49.798;9.928;2023-03-22T07:59:46;99302.81;;;12.28;69.34
19624;BME280;9959;49.798;9.928;2023-03-22T08:02:12;99302.53;;;12.18;69.84
19624;BME280;9959;49.798;9.928;2023-03-22T08:04:39;99295.78;;;12.27;68.50
19624;BME280;9959;49.798;9.928;2023-03-22T08:07:06;99294.97;;;12.38;68.19
19624;BME280;9959;49.798;9.928;2023-03-22T08:09:36;99292.47;;;12.25;68.36
19624;BME280;9959;49.798;9.928;2023-03-22T08:12:03;99299.16;;;12.34;68.79
19624;BME280;9959;49.798;9.928;2023-03-22T08:14:29;99291.38;;;12.56;67.87
19624;BME280;9959;49.798;9.928;2023-03-22T08:19:32;99307.34;;;12.58;67.98
19624;BME280;9959;49.798;9.928;2023-03-22T08:22:00;99304.06;;;12.91;67.10
19624;BME280;9959;49.798;9.928;2023-03-22T08:24:26;99293.00;;;12.92;66.09
19624;BME280;9959;49.798;9.928;2023-03-22T08:26:53;99295.47;;;13.17;65.63
19624;BME280;9959;49.798;9.928;2023-03-22T08:29:20;99306.28;;;13.05;65.82
19624;BME280;9959;49.798;9.928;2023-03-22T08:31:49;99298.66;;;13.02;65.47
19624;BME280;9959;49.798;9.928;2023-03-22T08:34:16;99298.97;;;13.41;64.76
19624;BME280;9959;49.798;9.928;2023-03-22T08:36:43;99303.47;;;13.75;63.24
19624;BME280;9959;49.798;9.928;2023-03-22T08:39:10;99286.69;;;13.62;62.81
19624;BME280;9959;49.798;9.928;2023-03-22T08:41:38;99299.41;;;13.61;63.28
19624;BME280;9959;49.798;9.928;2023-03-22T08:44:05;99298.59;;;14.34;60.91
19624;BME280;9959;49.798;9.928;2023-03-22T08:46:32;99304.81;;;14.46;60.54
19624;BME280;9959;49.798;9.928;2023-03-22T08:48:59;99302.81;;;14.92;58.62
19624;BME280;9959;49.798;9.928;2023-03-22T08:51:27;99297.41;;;14.92;58.23
19624;BME280;9959;49.798;9.928;2023-03-22T08:53:54;99288.84;;;15.00;57.62
19624;BME280;9959;49.798;9.928;2023-03-22T08:56:24;99292.41;;;15.22;57.51
19624;BME280;9959;49.798;9.928;2023-03-22T08:58:52;99297.56;;;15.02;57.49
19624;BME280;9959;49.798;9.928;2023-03-22T09:01:19;99284.25;;;15.01;56.47
19624;BME280;9959;49.798;9.928;2023-03-22T09:03:47;99295.31;;;15.38;55.64
19624;BME280;9959;49.798;9.928;2023-03-22T09:06:14;99284.09;;;15.51;55.23
19624;BME280;9959;49.798;9.928;2023-03-22T09:08:41;99287.25;;;15.43;55.69
19624;BME280;9959;49.798;9.928;2023-03-22T09:11:08;99279.19;;;14.71;57.37
19624;BME280;9959;49.798;9.928;2023-03-22T09:13:35;99281.25;;;15.41;56.38
19624;BME280;9959;49.798;9.928;2023-03-22T09:16:02;99280.97;;;14.82;57.21
19624;BME280;9959;49.798;9.928;2023-03-22T09:18:29;99278.78;;;14.62;58.16
19624;BME280;9959;49.798;9.928;2023-03-22T09:20:56;99299.16;;;14.48;59.28
19624;BME280;9959;49.798;9.928;2023-03-22T09:23:23;99269.63;;;14.35;59.60
19624;BME280;9959;49.798;9.928;2023-03-22T09:25:50;99274.59;;;14.09;59.91
19624;BME280;9959;49.798;9.928;2023-03-22T09:28:17;99276.97;;;15.06;56.81
19624;BME280;9959;49.798;9.928;2023-03-22T09:30:44;99274.44;;;15.38;55.94
19624;BME280;9959;49.798;9.928;2023-03-22T09:33:11;99271.50;;;16.10;54.03
19624;BME280;9959;49.798;9.928;2023-03-22T09:35:39;99266.44;;;15.48;55.40
19624;BME280;9959;49.798;9.928;2023-03-22T09:38:08;99264.19;;;14.85;57.33
19624;BME280;9959;49.798;9.928;2023-03-22T09:40:39;99262.88;;;14.87;56.52
19624;BME280;9959;49.798;9.928;2023-03-22T09:43:11;99258.00;;;15.06;56.76
19624;BME280;9959;49.798;9.928;2023-03-22T09:45:41;99266.41;;;14.88;56.89
19624;BME280;9959;49.798;9.928;2023-03-22T09:48:21;99261.63;;;14.11;59.49
19624;BME280;9959;49.798;9.928;2023-03-22T09:50:53;99256.25;;;14.62;57.89
19624;BME280;9959;49.798;9.928;2023-03-22T09:53:23;99257.56;;;15.14;56.07
19624;BME280;9959;49.798;9.928;2023-03-22T09:56:05;99246.97;;;15.35;55.37
19624;BME280;9959;49.798;9.928;2023-03-22T09:58:35;99250.41;;;15.08;55.93
19624;BME280;9959;49.798;9.928;2023-03-22T10:01:23;99248.53;;;16.28;51.99
19624;BME280;9959;49.798;9.928;2023-03-22T10:06:28;99247.84;;;15.40;54.52
19624;BME280;9959;49.798;9.928;2023-03-22T10:11:43;99248.50;;;14.87;56.11
19624;BME280;9959;49.798;9.928;2023-03-22T10:16:53;99236.38;;;16.04;52.01
19624;BME280;9959;49.798;9.928;2023-03-22T10:19:26;99227.88;;;16.27;50.89
19624;BME280;9959;49.798;9.928;2023-03-22T10:21:57;99229.53;;;15.74;52.37
19624;BME280;9959;49.798;9.928;2023-03-22T10:24:32;99233.97;;;16.44;50.27
19624;BME280;9959;49.798;9.928;2023-03-22T10:27:01;99227.06;;;16.27;50.56
19624;BME280;9959;49.798;9.928;2023-03-22T10:29:39;99235.19;;;16.58;50.06
19624;BME280;9959;49.798;9.928;2023-03-22T10:32:18;99239.41;;;16.39;51.09
19624;BME280;9959;49.798;9.928;2023-03-22T10:34:45;99231.16;;;16.29;50.89
19624;BME280;9959;49.798;9.928;2023-03-22T10:37:19;99239.22;;;15.65;53.01
19624;BME280;9959;49.798;9.928;2023-03-22T10:39:51;99228.16;;;15.50;52.83
19624;BME280;9959;49.798;9.928;2023-03-22T10:42:22;99230.94;;;15.55;52.63
19624;BME280;9959;49.798;9.928;2023-03-22T10:44:56;99220.22;;;15.92;52.06
19624;BME280;9959;49.798;9.928;2023-03-22T10:47:40;99235.53;;;15.76;52.03
19624;BME280;9959;49.798;9.928;2023-03-22T10:50:24;99230.53;;;16.22;50.54
19624;BME280;9959;49.798;9.928;2023-03-22T10:53:02;99221.25;;;15.86;50.71
19624;BME280;9959;49.798;9.928;2023-03-22T10:55:29;99217.66;;;15.80;50.80
19624;BME280;9959;49.798;9.928;2023-03-22T10:58:09;99218.34;;;16.62;48.79
19624;BME280;9959;49.798;9.928;2023-03-22T11:00:32;99215.59;;;17.61;46.42
19624;BME280;9959;49.798;9.928;2023-03-22T11:02:59;99216.88;;;16.12;48.71
19624;BME280;9959;49.798;9.928;2023-03-22T11:05:28;99215.09;;;15.96;50.20
19624;BME280;9959;49.798;9.928;2023-03-22T11:07:56;99197.88;;;16.17;49.22
19624;BME280;9959;49.798;9.928;2023-03-22T11:10:31;99205.28;;;16.58;48.68
19624;BME280;9959;49.798;9.928;2023-03-22T11:15:33;99198.16;;;17.57;46.88
19624;BME280;9959;49.798;9.928;2023-03-22T11:18:04;99205.91;;;18.01;45.59
19624;BME280;9959;49.798;9.928;2023-03-22T11:20:33;99206.34;;;17.62;45.97
19624;BME280;9959;49.798;9.928;2023-03-22T11:23:03;99200.69;;;17.06;46.88
19624;BME280;9959;49.798;9.928;2023-03-22T11:25:33;99212.59;;;17.63;45.87
19624;BME280;9959;49.798;9.928;2023-03-22T11:30:32;99189.22;;;16.99;45.82
19624;BME280;9959;49.798;9.928;2023-03-22T11:35:35;99180.16;;;17.56;43.26
19624;BME280;9959;49.798;9.928;2023-03-22T11:38:03;99182.19;;;18.11;41.98
19624;BME280;9959;49.798;9.928;2023-03-22T11:40:34;99182.78;;;17.25;44.81
19624;BME280;9959;49.798;9.928;2023-03-22T11:45:36;99171.72;;;17.57;43.42
19624;BME280;9959;49.798;9.928;2023-03-22T11:50:36;99161.16;;;18.73;42.10
19624;BME280;9959;49.798;9.928;2023-03-22T11:55:35;99154.06;;;18.72;40.63
19624;BME280;9959;49.798;9.928;2023-03-22T11:58:03;99152.47;;;19.79;39.59
19624;BME280;9959;49.798;9.928;2023-03-22T12:00:32;99152.22;;;19.26;39.75
19624;BME280;9959;49.798;9.928;2023-03-22T12:05:33;99149.56;;;19.11;40.43
19624;BME280;9959;49.798;9.928;2023-03-22T12:10:38;99161.66;;;17.63;42.44
19624;BME280;9959;49.798;9.928;2023-03-22T12:13:17;99142.06;;;18.37;41.15
19624;BME280;9959;49.798;9.928;2023-03-22T12:15:53;99145.66;;;19.27;40.17
19624;BME280;9959;49.798;9.928;2023-03-22T12:18:30;99147.53;;;18.42;41.10
19624;BME280;9959;49.798;9.928;2023-03-22T12:21:00;99125.09;;;18.81;41.42
19624;BME280;9959;49.798;9.928;2023-03-22T12:23:30;99137.81;;;19.11;39.66
19624;BME280;9959;49.798;9.928;2023-03-22T12:29:01;99133.19;;;19.06;40.13
19624;BME280;9959;49.798;9.928;2023-03-22T12:31:42;99119.19;;;20.88;37.26
19624;BME280;9959;49.798;9.928;2023-03-22T12:34:17;99126.44;;;19.43;38.54
19624;BME280;9959;49.798;9.928;2023-03-22T12:36:48;99124.53;;;19.87;38.59
19624;BME280;9959;49.798;9.928;2023-03-22T12:39:26;99130.50;;;19.45;39.13
19624;BME280;9959;49.798;9.928;2023-03-22T12:44:36;99105.44;;;20.45;37.69
19624;BME280;9959;49.798;9.928;2023-03-22T12:52:25;99115.91;;;20.04;36.28
19624;BME280;9959;49.798;9.928;2023-03-22T12:55:19;99106.31;;;20.36;36.04
19624;BME280;9959;49.798;9.928;2023-03-22T12:57:47;99108.75;;;20.90;35.81
19624;BME280;9959;49.798;9.928;2023-03-22T13:00:28;99098.31;;;19.86;37.21
19624;BME280;9959;49.798;9.928;2023-03-22T13:05:36;99098.41;;;18.68;39.98
19624;BME280;9959;49.798;9.928;2023-03-22T13:08:03;99094.34;;;19.19;38.92
19624;BME280;9959;49.798;9.928;2023-03-22T13:15:38;99086.44;;;18.38;39.75
19624;BME280;9959;49.798;9.928;2023-03-22T13:21:31;99089.75;;;18.20;40.16
19624;BME280;9959;49.798;9.928;2023-03-22T13:26:37;99087.59;;;17.86;41.33
19624;BME280;9959;49.798;9.928;2023-03-22T13:29:19;99093.25;;;18.46;39.82
19624;BME280;9959;49.798;9.928;2023-03-22T13:34:19;99075.06;;;20.71;35.93
19624;BME280;9959;49.798;9.928;2023-03-22T13:36:56;99073.19;;;20.66;36.17
19624;BME280;9959;49.798;9.928;2023-03-22T13:39:24;99069.41;;;21.28;35.01
19624;BME280;9959;49.798;9.928;2023-03-22T13:42:02;99059.25;;;20.10;36.45
19624;BME280;9959;49.798;9.928;2023-03-22T13:44:37;99051.72;;;19.68;37.63
19624;BME280;9959;49.798;9.928;2023-03-22T13:47:28;99053.00;;;20.33;36.29
19624;BME280;9959;49.798;9.928;2023-03-22T13:52:36;99052.91;;;19.46;37.41
19624;BME280;9959;49.798;9.928;2023-03-22T13:57:53;99035.03;;;18.86;38.44
19624;BME280;9959;49.798;9.928;2023-03-22T14:03:02;99052.88;;;18.53;39.13
19624;BME280;9959;49.798;9.928;2023-03-22T14:05:35;99045.25;;;18.45;39.14
19624;BME280;9959;49.798;9.928;2023-03-22T14:08:03;99031.47;;;17.85;40.38
19624;BME280;9959;49.798;9.928;2023-03-22T14:13:03;99035.22;;;18.94;38.50
19624;BME280;9959;49.798;9.928;2023-03-22T14:15:40;99028.13;;;18.29;39.81
19624;BME280;9959;49.798;9.928;2023-03-22T14:18:23;99031.41;;;18.26;39.85
19624;BME280;9959;49.798;9.928;2023-03-22T14:20:56;99031.19;;;17.92;40.92
19624;BME280;9959;49.798;9.928;2023-03-22T14:23:33;99023.56;;;17.84;40.15
19624;BME280;9959;49.798;9.928;2023-03-22T14:28:36;99023.59;;;17.74;40.33
19624;BME280;9959;49.798;9.928;2023-03-22T14:31:04;99026.44;;;18.38;39.12
19624;BME280;9959;49.798;9.928;2023-03-22T14:33:31;99017.44;;;18.38;39.79
19624;BME280;9959;49.798;9.928;2023-03-22T14:36:05;99015.88;;;18.26;40.25
19624;BME280;9959;49.798;9.928;2023-03-22T14:38:33;99000.34;;;18.07;40.01
19624;BME280;9959;49.798;9.928;2023-03-22T14:43:29;99007.31;;;18.53;39.55
19624;BME280;9959;49.798;9.928;2023-03-22T14:46:05;99005.69;;;18.47;40.03
19624;BME280;9959;49.798;9.928;2023-03-22T14:48:36;99000.47;;;19.10;38.65
19624;BME280;9959;49.798;9.928;2023-03-22T14:53:36;99000.00;;;19.71;37.35
19624;BME280;9959;49.798;9.928;2023-03-22T14:58:33;98990.88;;;20.10;36.95
19624;BME280;9959;49.798;9.928;2023-03-22T15:01:03;98987.00;;;20.64;35.52
19624;BME280;9959;49.798;9.928;2023-03-22T15:03:33;98990.56;;;21.39;34.79
19624;BME280;9959;49.798;9.928;2023-03-22T15:06:00;98978.78;;;21.57;34.14
19624;BME280;9959;49.798;9.928;2023-03-22T15:08:31;98982.09;;;19.89;36.71
19624;BME280;9959;49.798;9.928;2023-03-22T15:11:00;98978.63;;;19.78;37.94
19624;BME280;9959;49.798;9.928;2023-03-22T15:13:29;98979.16;;;21.51;34.24
19624;BME280;9959;49.798;9.928;2023-03-22T15:15:56;98965.81;;;21.77;34.00
19624;BME280;9959;49.798;9.928;2023-03-22T15:18:28;98974.81;;;20.75;35.38
19624;BME280;9959;49.798;9.928;2023-03-22T15:20:57;98957.59;;;19.45;36.98
19624;BME280;9959;49.798;9.928;2023-03-22T15:25:57;98961.84;;;18.88;38.57
19624;BME280;9959;49.798;9.928;2023-03-22T15:28:28;98960.84;;;18.74;38.27
19624;BME280;9959;49.798;9.928;2023-03-22T15:30:57;98964.41;;;18.69;38.84
19624;BME280;9959;49.798;9.928;2023-03-22T15:33:37;98957.53;;;18.82;38.90
19624;BME280;9959;49.798;9.928;2023-03-22T15:36:15;98952.53;;;19.67;37.42